aviador You're here:

PAMH Decoded Metar

MINCHUMINA in AK, USA
Report Time2017-08-18 00:56:00
UTC Time2017-08-18 01:07:41
Flight Rules vfr VFR
WindCalm
Visibility9999 m
Phenomena:N/A
Clouds:Broken 049 Hf
Expected CloudBase > 2,000 ft AGL from Temp-Dew spread
Ceiling4,900 ft
Temp12°C (ISA -2)
Dew Point07°C (72% RH)
AAT11.3°C
QNH1000 hPa
Density Alt1,093 ft
Elevation702 ft
Report Wrong Elevation
Raw Report
PAMH 180056Z AUTO 00000KT 10SM BKN049 12/07 A2953 RMK AO2 RAB03E48
SLP022 T01220067 PNO $=

Extra information for PAMH:More info

Metar Taf Metar & Taf Last 4 Metars F.Rules Stats Wind Profile Meteogram Temp Stats Airport Information Weather charts Add Link Nearby VenuesMetar ALERT Operation Metar Decoded Social comments

AIRNAV info for PAMH